Time;durP1;ratioP1;P1;durP2;ratioP2;P2;SDS_P1;SDS_P2;PMS_P1;PMS_P2;Temp;Humidity;BMP_temperature;BMP_pressure;BME280_temperature;BME280_humidity;BME280_pressure;Samples;Min_cycle;Max_cycle;Signal;HPM_P1;HPM_P2
2023/05/22 00:00:19;;;;;;;6.30;2.80;;;;;;;14.25;65.11;98714.66;105186;1260;99198;-60
2023/05/22 00:02:47;;;;;;;5.40;3.30;;;;;;;14.23;65.19;98714.37;105082;1266;99495;-61
2023/05/22 00:05:14;;;;;;;4.90;3.10;;;;;;;14.20;65.28;98710.41;105129;1260;97983;-61
2023/05/22 00:07:41;;;;;;;5.90;3.40;;;;;;;14.14;65.56;98700.64;105108;1268;97883;-60
2023/05/22 00:10:10;;;;;;;5.20;3.30;;;;;;;14.09;65.50;98704.48;105104;1261;98015;-61
2023/05/22 00:12:37;;;;;;;6.70;3.20;;;;;;;14.04;65.88;98699.27;105191;1260;99234;-60
2023/05/22 00:15:04;;;;;;;5.10;3.10;;;;;;;13.97;66.04;98700.12;105128;1266;97912;-60
2023/05/22 00:17:32;;;;;;;4.90;3.50;;;;;;;13.91;66.00;98698.40;105184;1266;99193;-60
2023/05/22 00:20:06;;;;;;;5.00;3.20;;;;;;;13.89;66.13;98697.14;105172;1267;98019;-60
2023/05/22 00:22:36;;;;;;;5.70;3.10;;;;;;;13.85;66.00;98697.80;105105;1267;112267;-60
2023/05/22 00:25:04;;;;;;;6.00;3.40;;;;;;;13.84;65.99;98696.01;104981;1260;98622;-60
2023/05/22 00:27:32;;;;;;;5.50;3.00;;;;;;;13.82;66.03;98690.57;105118;1259;108668;-60
2023/05/22 00:30:00;;;;;;;4.40;2.80;;;;;;;13.78;66.19;98687.98;105193;1266;97911;-60
2023/05/22 00:32:27;;;;;;;7.40;3.20;;;;;;;13.75;66.22;98687.38;105021;1259;98040;-62
2023/05/22 00:34:54;;;;;;;4.90;3.00;;;;;;;13.72;66.63;98683.65;105345;1267;98780;-61
2023/05/22 00:37:21;;;;;;;4.80;3.10;;;;;;;13.68;66.43;98683.83;105157;1266;99211;-60
2023/05/22 00:39:49;;;;;;;4.00;2.80;;;;;;;13.65;66.54;98681.02;105097;1258;97975;-60
2023/05/22 00:42:17;;;;;;;13.50;3.50;;;;;;;13.62;66.64;98680.98;105217;1260;97830;-61
2023/05/22 00:44:44;;;;;;;3.70;2.80;;;;;;;13.58;66.78;98683.38;105188;1266;97994;-60
2023/05/22 00:47:11;;;;;;;4.60;3.00;;;;;;;13.54;66.70;98680.61;105183;1266;97902;-61
2023/05/22 00:49:39;;;;;;;4.00;2.70;;;;;;;13.50;66.94;98676.45;105064;1261;99199;-61
2023/05/22 00:52:09;;;;;;;4.60;3.10;;;;;;;13.45;66.96;98674.73;104963;1261;107625;-60
2023/05/22 00:54:36;;;;;;;4.60;3.30;;;;;;;13.41;67.08;98674.48;105138;1255;99173;-64
2023/05/22 00:57:04;;;;;;;4.80;3.20;;;;;;;13.38;67.19;98676.59;105136;1266;98066;-61
2023/05/22 00:59:32;;;;;;;3.80;3.20;;;;;;;13.34;67.21;98671.85;105144;1263;112260;-62
2023/05/22 01:02:00;;;;;;;4.50;3.20;;;;;;;13.31;67.17;98671.05;105013;1270;98029;-61
2023/05/22 01:04:31;;;;;;;5.20;3.00;;;;;;;13.28;67.32;98669.69;105257;1258;108723;-62
2023/05/22 01:07:01;;;;;;;;;;;;;;;13.27;67.37;98665.87;105201;1260;97896;-61
2023/05/22 01:09:29;;;;;;;4.00;2.90;;;;;;;13.27;67.19;98666.98;104947;1260;98017;-61
2023/05/22 01:12:38;;;;;;;4.70;3.10;;;;;;;13.31;67.09;98665.63;105212;1267;97899;-60
2023/05/22 01:15:18;;;;;;;4.60;3.30;;;;;;;13.36;66.82;98669.96;104994;1263;98290;-61
2023/05/22 01:17:46;;;;;;;4.30;2.60;;;;;;;13.37;66.95;98674.75;104826;1274;108178;-62
2023/05/22 01:20:37;;;;;;;7.60;3.30;;;;;;;13.34;67.02;98674.45;105158;1257;97984;-60
2023/05/22 01:23:22;;;;;;;4.80;2.80;;;;;;;13.27;67.12;98671.82;105212;1259;97860;-60
2023/05/22 01:26:04;;;;;;;6.80;3.50;;;;;;;13.18;67.40;98670.67;105068;1258;112457;-61
2023/05/22 01:28:37;;;;;;;5.10;3.30;;;;;;;13.10;67.63;98671.21;104833;1255;98418;-60
2023/05/22 01:31:10;;;;;;;6.30;3.50;;;;;;;13.03;68.00;98667.95;105176;1266;108574;-60
2023/05/22 01:33:57;;;;;;;4.00;3.10;;;;;;;12.96;67.89;98668.80;105182;1266;97903;-60
2023/05/22 01:36:30;;;;;;;11.30;3.10;;;;;;;12.92;67.89;98671.06;104794;1262;97950;-60
2023/05/22 01:39:00;;;;;;;5.80;3.20;;;;;;;12.89;68.15;98669.36;104972;1270;110116;-61
2023/05/22 01:41:28;;;;;;;3.90;2.60;;;;;;;12.87;68.00;98668.08;105058;1269;99441;-60
2023/05/22 01:43:55;;;;;;;4.30;2.80;;;;;;;12.81;68.00;98665.34;105177;1268;108013;-61
2023/05/22 01:46:30;;;;;;;4.40;3.20;;;;;;;12.78;68.18;98665.45;105019;1271;97886;-60
2023/05/22 01:48:58;;;;;;;5.60;3.10;;;;;;;12.77;68.04;98667.15;105202;1261;99086;-60
2023/05/22 01:51:35;;;;;;;6.00;3.10;;;;;;;12.74;68.13;98666.02;104915;1257;110765;-61
2023/05/22 01:54:23;;;;;;;3.90;2.90;;;;;;;12.70;68.32;98667.25;104982;1266;99281;-61
2023/05/22 01:57:03;;;;;;;4.00;2.70;;;;;;;12.66;68.30;98667.21;105215;1260;108620;-60
2023/05/22 01:59:33;;;;;;;5.50;3.40;;;;;;;12.59;68.48;98668.36;105155;1266;99262;-61
2023/05/22 02:02:05;;;;;;;5.20;3.20;;;;;;;12.54;68.46;98666.19;105035;1262;98152;-61
2023/05/22 02:04:38;;;;;;;4.10;2.90;;;;;;;12.50;68.63;98664.14;105166;1254;112388;-60
2023/05/22 02:07:06;;;;;;;5.60;3.30;;;;;;;12.47;68.67;98660.71;105136;1266;99256;-60
2023/05/22 02:09:37;;;;;;;4.40;3.00;;;;;;;12.46;68.83;98660.01;105140;1268;108891;-60
2023/05/22 02:12:05;;;;;;;6.10;2.90;;;;;;;12.46;68.73;98661.42;105160;1270;97893;-60
2023/05/22 02:14:32;;;;;;;4.60;3.20;;;;;;;12.45;68.60;98659.59;105075;1260;98687;-61
2023/05/22 02:17:11;;;;;;;4.70;2.90;;;;;;;12.46;68.48;98660.55;104742;1270;112170;-60
2023/05/22 02:19:38;;;;;;;3.40;2.50;;;;;;;12.47;68.52;98660.39;105086;1264;99096;-61
2023/05/22 02:22:08;;;;;;;4.80;2.80;;;;;;;12.47;68.53;98660.00;105031;1261;97826;-63
2023/05/22 02:24:36;;;;;;;3.90;3.00;;;;;;;12.45;68.45;98656.83;104962;1267;98097;-61
2023/05/22 02:27:03;;;;;;;5.00;3.00;;;;;;;12.44;68.46;98662.85;105263;1257;97925;-60
2023/05/22 02:29:30;;;;;;;6.70;3.10;;;;;;;12.40;68.44;98660.69;105231;1268;97970;-61
2023/05/22 02:31:57;;;;;;;4.40;3.20;;;;;;;12.38;68.69;98663.45;105215;1266;97924;-61
2023/05/22 02:34:25;;;;;;;4.90;3.00;;;;;;;12.36;68.59;98666.75;105152;1268;97902;-61
2023/05/22 02:36:55;;;;;;;5.40;3.30;;;;;;;12.34;68.72;98663.26;105010;1272;98014;-60
2023/05/22 02:39:22;;;;;;;4.90;2.70;;;;;;;12.28;68.80;98667.17;104955;1260;99750;-60
2023/05/22 02:41:49;;;;;;;5.70;3.50;;;;;;;12.25;69.00;98664.38;105197;1269;99029;-60
2023/05/22 02:44:16;;;;;;;4.50;3.10;;;;;;;12.19;69.32;98662.56;105131;1263;97910;-61
2023/05/22 02:46:43;;;;;;;5.90;3.00;;;;;;;12.12;69.46;98664.31;105121;1258;97925;-61
2023/05/22 02:49:10;;;;;;;5.30;3.30;;;;;;;12.05;69.94;98659.96;105127;1257;98513;-61
2023/05/22 02:51:37;;;;;;;4.70;3.20;;;;;;;11.98;70.03;98659.11;105088;1258;97987;-60
2023/05/22 02:54:04;;;;;;;6.40;3.20;;;;;;;11.95;70.10;98660.52;105172;1254;97883;-60
2023/05/22 02:56:32;;;;;;;4.90;3.30;;;;;;;11.93;69.84;98658.17;105098;1254;97944;-61
2023/05/22 02:58:59;;;;;;;6.50;3.20;;;;;;;11.91;70.22;98655.42;105179;1257;98746;-61
2023/05/22 03:01:29;;;;;;;4.20;2.90;;;;;;;11.92;70.07;98660.02;105115;1253;97978;-62
2023/05/22 03:03:57;;;;;;;5.90;3.10;;;;;;;11.94;70.06;98659.21;105067;1258;112237;-60
2023/05/22 03:06:24;;;;;;;6.80;3.30;;;;;;;11.93;70.04;98660.44;105172;1266;99243;-59
2023/05/22 03:08:52;;;;;;;5.70;3.20;;;;;;;11.95;69.93;98658.85;105182;1267;97896;-60
2023/05/22 03:11:20;;;;;;;7.70;3.10;;;;;;;11.96;70.18;98658.45;105204;1257;97902;-60
2023/05/22 03:13:47;;;;;;;5.40;3.30;;;;;;;11.97;69.94;98653.84;105014;1256;97949;-59
2023/05/22 03:16:14;;;;;;;4.90;3.20;;;;;;;11.97;69.98;98654.34;105168;1258;97888;-60
2023/05/22 03:18:41;;;;;;;7.30;3.00;;;;;;;11.96;69.92;98655.17;105176;1258;98380;-60
2023/05/22 03:21:08;;;;;;;4.90;3.40;;;;;;;11.95;69.96;98659.11;105166;1258;99239;-61
2023/05/22 03:23:35;;;;;;;6.00;3.40;;;;;;;11.94;70.15;98657.17;105222;1266;97982;-60
2023/05/22 03:26:02;;;;;;;5.80;3.00;;;;;;;11.92;70.09;98657.02;105043;1260;98478;-60
2023/05/22 03:28:29;;;;;;;6.30;3.20;;;;;;;11.92;70.18;98658.43;105151;1267;99087;-60
2023/05/22 03:30:56;;;;;;;5.80;3.00;;;;;;;11.95;70.16;98654.46;105045;1264;108567;-60
2023/05/22 03:33:22;;;;;;;6.60;3.60;;;;;;;11.97;69.88;98655.11;105067;1258;101553;-60
2023/05/22 03:35:50;;;;;;;3.90;2.80;;;;;;;12.02;69.87;98656.03;105147;1257;97939;-60
2023/05/22 03:38:17;;;;;;;6.20;3.30;;;;;;;12.07;69.69;98655.73;105129;1269;99084;-60
2023/05/22 03:40:44;;;;;;;5.60;3.50;;;;;;;12.16;69.36;98656.45;105085;1258;97917;-63
2023/05/22 03:43:11;;;;;;;6.00;3.50;;;;;;;12.25;69.39;98653.19;105079;1257;99097;-60
2023/05/22 03:45:38;;;;;;;5.10;3.30;;;;;;;12.34;69.18;98658.58;105152;1260;97975;-61
2023/05/22 03:48:05;;;;;;;6.10;3.70;;;;;;;12.43;68.71;98655.27;105034;1270;98053;-60
2023/05/22 03:50:32;;;;;;;3.90;2.90;;;;;;;12.50;68.65;98654.80;105076;1270;98064;-60
2023/05/22 03:52:59;;;;;;;6.20;3.10;;;;;;;12.55;68.34;98654.96;105097;1276;108698;-60
2023/05/22 03:55:26;;;;;;;5.40;3.20;;;;;;;12.57;68.30;98659.23;105163;1267;97945;-60
2023/05/22 03:57:53;;;;;;;5.50;3.00;;;;;;;12.62;68.03;98657.48;105183;1258;98708;-60
2023/05/22 04:00:20;;;;;;;7.10;3.20;;;;;;;12.66;68.25;98662.73;105157;1270;97896;-61
2023/05/22 04:02:49;;;;;;;5.40;3.60;;;;;;;12.73;68.03;98663.48;105118;1254;97970;-61
2023/05/22 04:05:16;;;;;;;6.70;3.10;;;;;;;12.81;67.77;98664.73;104902;1262;108202;-61
2023/05/22 04:07:43;;;;;;;6.30;3.50;;;;;;;12.89;67.72;98663.21;105136;1268;97928;-61
2023/05/22 04:10:11;;;;;;;4.70;3.20;;;;;;;13.00;67.37;98664.64;105177;1261;97978;-61
2023/05/22 04:12:38;;;;;;;4.70;3.20;;;;;;;13.09;66.99;98663.10;105239;1258;98369;-61
2023/05/22 04:15:06;;;;;;;4.80;3.10;;;;;;;13.19;66.77;98661.31;105168;1266;97909;-60
2023/05/22 04:17:34;;;;;;;9.10;3.90;;;;;;;13.27;66.38;98661.46;105176;1267;97992;-61
2023/05/22 04:20:04;;;;;;;9.90;3.60;;;;;;;13.35;66.18;98660.58;105197;1257;99084;-62
2023/05/22 04:22:32;;;;;;;6.20;3.40;;;;;;;13.44;65.92;98662.98;105221;1266;97866;-60
2023/05/22 04:24:59;;;;;;;6.10;3.00;;;;;;;13.51;65.52;98662.81;105194;1267;112221;-60
2023/05/22 04:27:28;;;;;;;5.60;3.50;;;;;;;13.57;65.35;98661.33;105212;1264;98014;-60
2023/05/22 04:29:55;;;;;;;6.20;3.50;;;;;;;13.65;65.26;98659.55;105179;1257;108620;-60
2023/05/22 04:32:22;;;;;;;6.60;3.40;;;;;;;13.77;65.34;98658.89;105167;1257;97902;-60
2023/05/22 04:34:49;;;;;;;6.10;2.90;;;;;;;13.89;64.47;98659.19;105181;1254;97902;-60
2023/05/22 04:37:19;;;;;;;3.90;2.70;;;;;;;13.93;64.15;98655.10;106218;1260;97942;-62
2023/05/22 04:39:46;;;;;;;6.80;2.70;;;;;;;13.96;63.89;98658.90;104922;1271;98250;-60
2023/05/22 04:42:14;;;;;;;4.60;2.30;;;;;;;14.01;63.92;98656.80;105200;1267;97877;-60
2023/05/22 04:44:42;;;;;;;5.40;3.20;;;;;;;14.04;63.16;98656.19;105212;1266;98800;-61
2023/05/22 04:47:13;;;;;;;7.10;2.90;;;;;;;14.09;63.48;98657.64;105197;1260;97972;-61
2023/05/22 04:49:44;;;;;;;4.40;3.00;;;;;;;14.17;63.00;98655.73;105171;1260;112174;-60
2023/05/22 04:52:11;;;;;;;4.90;3.20;;;;;;;14.21;63.06;98659.86;105209;1256;99606;-61
2023/05/22 04:54:38;;;;;;;4.60;3.10;;;;;;;14.24;62.83;98659.58;105203;1254;97991;-60
2023/05/22 04:57:06;;;;;;;8.10;3.30;;;;;;;14.29;62.72;98661.03;105153;1254;97889;-60
2023/05/22 04:59:38;;;;;;;6.70;3.10;;;;;;;14.37;62.71;98659.88;105255;1253;98000;-60
2023/05/22 05:02:06;;;;;;;4.90;2.70;;;;;;;14.41;62.36;98653.08;105102;1260;112170;-61
2023/05/22 05:04:33;;;;;;;6.10;3.40;;;;;;;14.45;62.06;98655.59;104983;1271;100014;-64
2023/05/22 05:07:01;;;;;;;7.40;3.30;;;;;;;14.48;62.12;98657.59;105063;1266;98405;-67
2023/05/22 05:09:28;;;;;;;4.50;2.90;;;;;;;14.56;62.28;98653.62;105149;1264;98019;-61
2023/05/22 05:11:57;;;;;;;6.50;3.20;;;;;;;14.66;62.23;98652.86;105207;1257;98449;-62
2023/05/22 05:14:24;;;;;;;6.20;3.10;;;;;;;14.82;61.92;98652.13;105232;1266;112465;-60
2023/05/22 05:16:51;;;;;;;6.40;3.20;;;;;;;14.95;61.65;98649.10;104987;1267;97966;-61
2023/05/22 05:19:20;;;;;;;6.40;3.40;;;;;;;15.01;61.27;98647.96;105133;1266;97934;-61
2023/05/22 05:21:48;;;;;;;6.40;3.40;;;;;;;15.02;60.75;98655.89;105107;1259;97899;-61
2023/05/22 05:24:19;;;;;;;6.90;3.40;;;;;;;15.03;61.13;98656.65;105161;1257;99100;-61
2023/05/22 05:26:46;;;;;;;2.50;1.90;;;;;;;15.19;61.66;98655.73;105176;1257;112276;-62
2023/05/22 05:29:13;;;;;;;5.10;2.50;;;;;;;15.33;60.25;98655.83;105175;1257;97933;-62
2023/05/22 05:31:40;;;;;;;4.90;2.90;;;;;;;15.28;60.41;98659.80;105187;1254;99227;-62
2023/05/22 05:34:08;;;;;;;6.10;2.90;;;;;;;15.32;60.04;98665.03;105348;1267;97870;-62
2023/05/22 05:36:35;;;;;;;5.50;3.10;;;;;;;15.39;59.96;98666.27;105223;1253;97918;-62
2023/05/22 05:39:02;;;;;;;6.10;3.00;;;;;;;15.46;59.78;98667.66;105078;1261;99240;-62
2023/05/22 05:41:29;;;;;;;5.10;2.90;;;;;;;15.47;59.47;98670.14;105166;1257;99346;-62
2023/05/22 05:43:58;;;;;;;4.90;2.80;;;;;;;15.45;58.99;98665.27;105192;1257;99298;-62
2023/05/22 05:46:26;;;;;;;6.70;3.00;;;;;;;15.42;58.86;98664.98;105050;1259;98458;-62
2023/05/22 05:48:53;;;;;;;5.50;3.10;;;;;;;15.41;59.40;98664.06;105244;1257;97946;-62
2023/05/22 05:51:21;;;;;;;4.70;2.90;;;;;;;15.51;59.48;98663.33;105045;1261;97968;-62
2023/05/22 05:53:48;;;;;;;7.60;3.10;;;;;;;15.63;59.23;98660.00;105153;1257;97905;-62
2023/05/22 05:56:16;;;;;;;4.40;2.70;;;;;;;15.76;58.90;98655.09;105038;1260;107646;-62
2023/05/22 05:58:43;;;;;;;5.90;3.10;;;;;;;15.81;58.55;98653.33;105162;1257;97911;-62
2023/05/22 06:01:10;;;;;;;5.00;3.10;;;;;;;15.96;58.54;98653.38;105169;1254;99129;-62
2023/05/22 06:03:38;;;;;;;4.20;2.30;;;;;;;16.09;57.86;98656.30;105221;1257;97880;-62
2023/05/22 06:06:06;;;;;;;3.20;2.50;;;;;;;16.16;57.61;98656.55;105211;1253;97915;-62
2023/05/22 06:08:33;;;;;;;4.40;2.70;;;;;;;16.29;56.95;98655.02;105204;1254;108562;-62
2023/05/22 06:11:01;;;;;;;5.70;2.70;;;;;;;16.45;56.64;98648.69;105171;1257;97922;-62
2023/05/22 06:13:28;;;;;;;3.50;2.40;;;;;;;16.60;56.49;98646.77;105238;1257;98004;-62
2023/05/22 06:15:55;;;;;;;6.30;3.00;;;;;;;16.78;56.32;98642.88;105227;1257;99221;-62
2023/05/22 06:18:26;;;;;;;8.90;2.90;;;;;;;17.04;56.04;98642.89;105074;1261;97986;-63
2023/05/22 06:20:55;;;;;;;5.40;2.70;;;;;;;17.23;55.27;98643.37;105125;1258;97934;-63
2023/05/22 06:23:23;;;;;;;9.60;2.70;;;;;;;17.40;54.61;98637.67;105173;1259;99205;-63
2023/05/22 06:25:50;;;;;;;3.50;2.10;;;;;;;17.32;53.74;98638.20;105061;1257;99193;-62
2023/05/22 06:28:17;;;;;;;2.70;2.00;;;;;;;17.30;53.25;98635.61;104959;1257;99182;-62
2023/05/22 06:30:44;;;;;;;6.20;2.40;;;;;;;17.30;53.69;98638.64;104897;1254;99089;-63
2023/05/22 06:33:13;;;;;;;3.70;2.50;;;;;;;17.52;53.41;98638.95;105156;1254;99787;-61
2023/05/22 06:35:40;;;;;;;5.00;2.20;;;;;;;17.70;51.91;98638.47;105094;1257;99192;-61
2023/05/22 06:38:08;;;;;;;4.60;2.20;;;;;;;17.77;51.53;98636.65;105009;1261;243020;-61
2023/05/22 06:40:35;;;;;;;4.10;2.30;;;;;;;17.80;50.70;98638.14;105054;1257;98927;-61
2023/05/22 06:43:03;;;;;;;5.80;2.50;;;;;;;17.83;51.68;98631.23;104975;1254;99851;-61
2023/05/22 06:45:30;;;;;;;4.50;2.20;;;;;;;18.10;52.05;98633.69;105163;1266;97918;-61
2023/05/22 06:47:57;;;;;;;4.00;1.80;;;;;;;18.39;50.25;98634.17;104886;1257;97902;-61
2023/05/22 06:50:24;;;;;;;3.10;2.10;;;;;;;18.42;49.69;98637.16;105021;1260;97985;-61
2023/05/22 06:52:51;;;;;;;5.10;2.20;;;;;;;18.44;49.39;98635.94;105086;1267;98412;-63
2023/05/22 06:55:19;;;;;;;6.20;2.50;;;;;;;18.55;49.61;98636.31;104992;1271;97892;-62
2023/05/22 06:57:46;;;;;;;4.40;2.50;;;;;;;18.63;49.51;98634.30;105124;1254;97944;-61
2023/05/22 07:00:14;;;;;;;3.40;2.30;;;;;;;18.80;49.71;98638.16;104927;1270;98489;-64
2023/05/22 07:02:41;;;;;;;5.10;2.60;;;;;;;18.96;49.93;98631.84;105024;1260;97975;-62
2023/05/22 07:05:09;;;;;;;3.50;2.50;;;;;;;19.11;50.79;98633.06;105181;1257;97911;-62
2023/05/22 07:07:36;;;;;;;3.90;2.00;;;;;;;19.24;50.99;98634.61;105170;1257;98421;-62
2023/05/22 07:10:05;;;;;;;6.40;2.60;;;;;;;19.21;50.51;98632.11;105175;1254;98057;-63
2023/05/22 07:12:32;;;;;;;7.40;2.60;;;;;;;19.26;50.66;98630.77;105261;1257;98811;-63
2023/05/22 07:15:00;;;;;;;4.70;2.40;;;;;;;19.27;50.14;98630.77;105163;1267;97890;-63
2023/05/22 07:17:27;;;;;;;4.50;2.20;;;;;;;19.32;49.59;98628.93;105226;1257;111522;-63
2023/05/22 07:19:54;;;;;;;2.40;1.80;;;;;;;19.40;49.13;98631.19;105008;1261;98181;-63
2023/05/22 07:22:22;;;;;;;4.60;1.80;;;;;;;19.49;47.85;98629.73;105200;1268;98519;-63
2023/05/22 07:24:49;;;;;;;7.10;2.00;;;;;;;19.68;47.89;98627.45;105047;1260;97912;-63
2023/05/22 07:27:16;;;;;;;5.90;2.80;;;;;;;19.74;47.23;98626.34;105221;1257;97983;-63
2023/05/22 07:29:43;;;;;;;6.30;2.60;;;;;;;19.74;47.68;98625.55;105201;1257;97970;-63
2023/05/22 07:32:11;;;;;;;3.00;2.30;;;;;;;19.76;46.86;98627.56;105123;1258;99295;-63
2023/05/22 07:34:38;;;;;;;5.70;2.60;;;;;;;19.69;46.24;98625.10;105145;1268;99191;-63
2023/05/22 07:37:07;;;;;;;4.00;2.70;;;;;;;19.74;46.58;98623.80;105167;1256;97975;-61
2023/05/22 07:39:34;;;;;;;7.90;2.70;;;;;;;20.06;46.54;98621.52;105207;1258;97893;-61
2023/05/22 07:42:03;;;;;;;4.00;2.20;;;;;;;20.28;45.31;98618.83;105145;1254;97880;-64
2023/05/22 07:44:31;;;;;;;3.80;2.20;;;;;;;20.46;44.94;98620.05;105179;1254;100102;-61
2023/05/22 07:46:59;;;;;;;3.30;2.00;;;;;;;20.64;44.22;98615.38;105054;1276;107633;-61
2023/05/22 07:49:26;;;;;;;5.40;1.90;;;;;;;20.85;42.55;98612.77;104778;1263;98007;-65
2023/05/22 07:51:53;;;;;;;4.10;2.50;;;;;;;20.95;42.27;98613.20;105051;1258;97934;-63
2023/05/22 07:54:20;;;;;;;3.00;2.20;;;;;;;20.99;41.61;98613.88;105052;1267;101496;-64
2023/05/22 07:56:47;;;;;;;4.40;2.30;;;;;;;21.15;41.27;98617.34;105131;1266;99193;-61
2023/05/22 07:59:15;;;;;;;3.60;2.10;;;;;;;21.29;40.45;98612.34;105124;1257;99091;-60
2023/05/22 08:01:42;;;;;;;3.40;1.60;;;;;;;21.63;40.94;98610.23;105177;1254;98680;-61
2023/05/22 08:04:09;;;;;;;4.10;2.00;;;;;;;21.87;38.77;98603.91;105192;1254;97963;-62
2023/05/22 08:06:38;;;;;;;3.20;2.20;;;;;;;21.98;38.25;98606.11;105185;1254;98047;-61
2023/05/22 08:09:05;;;;;;;3.40;2.20;;;;;;;22.30;38.09;98599.58;105186;1267;99337;-61
2023/05/22 08:11:33;;;;;;;2.80;1.80;;;;;;;22.52;35.91;98601.86;105179;1271;98565;-61
2023/05/22 08:14:02;;;;;;;3.60;1.90;;;;;;;22.48;34.39;98602.25;105021;1263;98061;-62
2023/05/22 08:16:30;;;;;;;5.10;2.10;;;;;;;22.47;34.23;98602.33;105092;1257;99055;-62
2023/05/22 08:18:58;;;;;;;1.80;1.30;;;;;;;22.51;33.61;98603.61;105112;1257;112717;-62
2023/05/22 08:21:25;;;;;;;3.80;1.80;;;;;;;22.41;33.55;98600.88;105149;1258;99187;-61
2023/05/22 08:23:52;;;;;;;3.60;2.00;;;;;;;22.56;32.91;98600.11;105135;1258;97969;-62
2023/05/22 08:26:20;;;;;;;3.90;1.90;;;;;;;22.73;32.73;98595.59;105008;1257;97960;-61
2023/05/22 08:28:47;;;;;;;4.30;1.80;;;;;;;22.83;31.55;98596.89;105164;1257;98387;-62
2023/05/22 08:31:14;;;;;;;4.10;1.70;;;;;;;22.97;30.23;98599.27;105137;1257;97887;-62
2023/05/22 08:33:42;;;;;;;4.00;1.80;;;;;;;22.94;29.30;98595.13;105062;1257;97918;-61
2023/05/22 08:36:09;;;;;;;2.40;1.40;;;;;;;23.06;30.95;98597.91;104949;1270;97935;-62
2023/05/22 08:38:37;;;;;;;2.60;1.70;;;;;;;23.27;30.25;98602.52;105122;1256;97973;-62
2023/05/22 08:41:06;;;;;;;2.10;1.50;;;;;;;23.27;29.92;98597.95;104982;1254;97954;-61
2023/05/22 08:43:34;;;;;;;1.90;1.70;;;;;;;23.03;30.10;98600.88;105098;1254;111172;-62
2023/05/22 08:46:07;;;;;;;3.10;1.70;;;;;;;23.06;30.66;98599.44;105176;1254;99340;-62
2023/05/22 08:48:47;;;;;;;4.60;1.80;;;;;;;23.12;30.55;98595.04;104895;1273;108166;-62
2023/05/22 08:51:18;;;;;;;2.10;1.50;;;;;;;22.96;30.75;98600.71;105157;1260;97934;-62
2023/05/22 08:53:51;;;;;;;2.50;1.70;;;;;;;22.84;30.53;98596.73;105025;1262;99191;-62
2023/05/22 08:56:20;;;;;;;4.60;2.10;;;;;;;22.91;30.95;98587.95;105076;1257;112240;-66
2023/05/22 08:58:56;;;;;;;5.60;1.90;;;;;;;23.03;30.78;98590.48;104848;1261;99461;-63
2023/05/22 09:01:25;;;;;;;3.60;1.70;;;;;;;23.20;30.75;98585.60;104940;1261;107849;-63
2023/05/22 09:03:53;;;;;;;2.00;1.50;;;;;;;23.37;30.20;98584.08;105097;1260;98048;-64
2023/05/22 09:06:20;;;;;;;2.10;1.30;;;;;;;23.33;30.02;98581.90;105020;1254;99718;-64
2023/05/22 09:08:47;;;;;;;3.40;2.10;;;;;;;23.20;30.60;98576.41;105104;1257;112510;-63
2023/05/22 09:11:17;;;;;;;4.60;1.80;;;;;;;23.26;30.16;98580.86;104624;1264;97964;-69
2023/05/22 09:13:44;;;;;;;3.30;1.80;;;;;;;23.14;29.63;98584.98;104695;1261;108437;-63
2023/05/22 09:16:12;;;;;;;5.60;2.10;;;;;;;23.24;29.60;98579.92;105103;1258;99215;-66
2023/05/22 09:18:43;;;;;;;3.00;1.90;;;;;;;23.32;29.40;98575.98;105170;1257;97896;-62
2023/05/22 09:21:13;;;;;;;2.40;1.70;;;;;;;23.30;30.31;98577.91;105036;1254;111277;-62
2023/05/22 09:24:01;;;;;;;3.60;1.80;;;;;;;23.39;30.15;98577.67;104955;1261;98934;-62
2023/05/22 09:26:35;;;;;;;1.80;1.60;;;;;;;23.40;29.94;98580.72;105064;1254;108108;-62
2023/05/22 09:29:07;;;;;;;2.80;1.60;;;;;;;23.33;29.74;98572.17;104858;1274;98087;-62
2023/05/22 09:31:43;;;;;;;3.20;2.00;;;;;;;23.43;30.58;98574.86;105100;1254;97918;-62
2023/05/22 09:34:14;;;;;;;2.70;1.30;;;;;;;23.88;29.87;98578.64;104980;1261;111770;-62
2023/05/22 09:36:42;;;;;;;3.60;1.90;;;;;;;23.94;29.95;98574.85;105114;1260;99375;-63
2023/05/22 09:39:09;;;;;;;2.80;1.80;;;;;;;24.18;29.68;98581.95;105026;1258;107812;-63
2023/05/22 09:41:38;;;;;;;4.50;1.80;;;;;;;24.19;29.31;98587.15;105038;1258;97892;-63
2023/05/22 09:44:13;;;;;;;4.50;2.00;;;;;;;24.19;29.95;98585.86;105052;1258;97961;-63
2023/05/22 09:46:45;;;;;;;2.60;1.80;;;;;;;24.34;30.18;98582.98;105071;1253;112149;-63
2023/05/22 09:49:12;;;;;;;3.20;1.60;;;;;;;24.48;29.06;98577.05;104977;1260;98093;-63
2023/05/22 09:51:46;;;;;;;5.30;2.00;;;;;;;24.20;29.04;98573.39;105014;1260;108721;-62
2023/05/22 09:54:16;;;;;;;4.30;1.80;;;;;;;24.29;29.50;98570.29;105018;1257;97895;-63
2023/05/22 09:56:49;;;;;;;2.40;1.50;;;;;;;24.60;29.32;98568.64;105010;1263;98018;-63
2023/05/22 09:59:29;;;;;;;3.70;2.00;;;;;;;24.52;29.18;98569.66;104813;1276;112019;-62
2023/05/22 10:01:58;;;;;;;3.80;1.80;;;;;;;24.41;28.69;98571.02;104970;1261;99101;-63
2023/05/22 10:04:30;;;;;;;2.60;1.60;;;;;;;24.25;28.48;98569.67;105160;1257;108526;-61
2023/05/22 10:07:02;;;;;;;5.20;2.00;;;;;;;24.21;28.61;98567.77;104741;1262;98000;-61
2023/05/22 10:09:49;;;;;;;3.40;2.20;;;;;;;24.36;28.40;98562.80;105078;1256;99087;-62
2023/05/22 10:12:20;;;;;;;2.90;1.60;;;;;;;24.35;28.09;98563.30;104879;1262;111219;-62
2023/05/22 10:14:47;;;;;;;2.80;1.60;;;;;;;24.44;27.30;98560.03;105095;1254;99212;-62
2023/05/22 10:17:16;;;;;;;3.30;2.00;;;;;;;24.59;26.98;98569.92;105086;1268;97919;-62
2023/05/22 10:19:46;;;;;;;4.00;2.20;;;;;;;24.84;27.74;98565.33;105093;1257;97885;-62
2023/05/22 10:22:21;;;;;;;4.60;2.40;;;;;;;25.22;27.82;98561.23;105037;1259;97948;-62
2023/05/22 10:25:00;;;;;;;4.50;1.90;;;;;;;25.43;27.28;98563.55;105145;1257;111753;-61
2023/05/22 10:27:35;;;;;;;6.50;2.30;;;;;;;25.64;27.00;98557.26;105063;1257;99186;-62
2023/05/22 10:30:08;;;;;;;2.40;1.70;;;;;;;25.80;25.79;98558.76;104980;1273;107588;-62
2023/05/22 10:32:45;;;;;;;3.60;2.10;;;;;;;25.81;25.37;98556.02;104822;1260;99265;-62
2023/05/22 10:35:20;;;;;;;2.60;1.90;;;;;;;26.19;25.52;98550.84;105029;1257;97889;-64
2023/05/22 10:38:05;;;;;;;6.30;2.20;;;;;;;26.31;25.21;98548.53;105085;1254;112131;-64
2023/05/22 10:40:34;;;;;;;3.40;2.20;;;;;;;26.30;26.22;98546.54;105160;1254;99418;-62
2023/05/22 10:43:05;;;;;;;3.20;2.20;;;;;;;26.05;25.82;98549.77;105101;1260;108810;-62
2023/05/22 10:45:32;;;;;;;2.50;2.10;;;;;;;25.78;25.79;98548.92;105126;1257;97931;-63
2023/05/22 10:48:11;;;;;;;2.80;1.80;;;;;;;25.99;25.10;98550.81;105174;1266;97906;-61
2023/05/22 10:50:48;;;;;;;4.60;2.30;;;;;;;25.91;25.09;98549.94;105082;1256;111803;-60
2023/05/22 10:53:30;;;;;;;2.80;2.20;;;;;;;26.18;24.43;98548.70;104964;1261;99183;-61
2023/05/22 10:56:07;;;;;;;2.70;2.00;;;;;;;26.06;24.04;98543.64;105077;1257;108788;-62
2023/05/22 10:58:37;;;;;;;3.30;2.10;;;;;;;25.99;24.36;98545.60;104784;1262;99258;-63
2023/05/22 11:01:11;;;;;;;4.20;1.90;;;;;;;26.28;23.91;98543.67;105072;1258;97905;-63
2023/05/22 11:04:10;;;;;;;3.50;2.00;;;;;;;26.36;24.27;98542.52;105098;1254;112377;-63
2023/05/22 11:06:44;;;;;;;4.40;2.00;;;;;;;26.33;23.90;98541.14;104973;1261;99221;-62
2023/05/22 11:09:18;;;;;;;2.40;2.00;;;;;;;26.43;24.48;98539.61;105112;1257;108728;-62
2023/05/22 11:11:46;;;;;;;5.30;2.10;;;;;;;26.49;24.62;98536.45;105057;1257;97902;-62
2023/05/22 11:14:19;;;;;;;3.10;1.90;;;;;;;26.80;25.25;98539.65;105180;1258;99173;-62
2023/05/22 11:16:46;;;;;;;2.80;1.90;;;;;;;26.85;24.70;98533.79;105136;1260;112783;-62
2023/05/22 11:19:14;;;;;;;2.20;1.90;;;;;;;26.86;24.53;98530.23;105136;1257;99199;-60
2023/05/22 11:21:49;;;;;;;1.60;1.50;;;;;;;26.72;24.82;98527.25;104957;1257;108832;-61
2023/05/22 11:24:17;;;;;;;3.70;1.80;;;;;;;26.25;24.82;98525.10;105063;1260;97962;-62
2023/05/22 11:27:01;;;;;;;3.80;2.10;;;;;;;26.35;25.43;98529.53;105082;1257;99196;-63
2023/05/22 11:29:29;;;;;;;4.90;2.40;;;;;;;26.61;25.84;98525.91;105112;1270;112204;-62
2023/05/22 11:31:58;;;;;;;3.50;1.80;;;;;;;27.17;25.52;98527.43;105046;1257;99262;-62
2023/05/22 11:34:25;;;;;;;3.70;1.90;;;;;;;27.17;24.71;98515.65;105005;1259;108542;-61